createdAt,value
2018-09-19T00:00:31.432Z,28.20
2018-09-19T00:03:00.667Z,28.20
2018-09-19T00:05:29.976Z,28.20
2018-09-19T00:07:59.241Z,28.20
2018-09-19T00:10:28.537Z,28.10
2018-09-19T00:12:57.797Z,28.10
2018-09-19T00:15:27.063Z,28.10
2018-09-19T00:17:56.284Z,28.10
2018-09-19T00:20:25.597Z,28.10
2018-09-19T00:22:54.869Z,28.10
2018-09-19T00:25:24.152Z,28.10
2018-09-19T00:27:53.421Z,28.10
2018-09-19T00:30:22.740Z,28.10
2018-09-19T00:32:52.000Z,28.10
2018-09-19T00:35:21.456Z,28.00
2018-09-19T00:37:51.729Z,28.00
2018-09-19T00:40:20.979Z,28.00
2018-09-19T00:42:50.295Z,28.00
2018-09-19T00:45:19.535Z,28.00
2018-09-19T00:47:48.835Z,28.00
2018-09-19T00:50:18.154Z,28.00
2018-09-19T00:52:47.440Z,28.00
2018-09-19T00:55:16.793Z,28.00
2018-09-19T00:57:46.041Z,28.00
2018-09-19T01:00:15.302Z,28.00
2018-09-19T01:02:44.545Z,28.00
2018-09-19T01:05:13.829Z,27.90
2018-09-19T01:07:43.108Z,28.00
2018-09-19T01:10:12.392Z,27.90
2018-09-19T01:12:41.697Z,27.90
2018-09-19T01:15:10.992Z,27.90
2018-09-19T01:17:40.208Z,27.90
2018-09-19T01:20:09.604Z,28.00
2018-09-19T01:22:38.904Z,27.90
2018-09-19T01:25:08.194Z,28.00
2018-09-19T01:27:37.456Z,27.90
2018-09-19T01:30:07.060Z,27.90
2018-09-19T01:32:36.377Z,27.90
2018-09-19T01:35:05.755Z,28.00
2018-09-19T01:37:35.033Z,28.00
2018-09-19T01:40:04.305Z,28.00
2018-09-19T01:42:33.593Z,28.00
2018-09-19T01:45:02.846Z,28.00
2018-09-19T01:47:32.087Z,28.00
2018-09-19T01:50:01.460Z,28.00
2018-09-19T01:52:30.725Z,28.00
2018-09-19T01:54:59.961Z,28.00
2018-09-19T01:57:29.210Z,28.00
2018-09-19T01:59:58.431Z,28.00
2018-09-19T02:02:27.875Z,28.00
2018-09-19T02:04:57.304Z,28.00
2018-09-19T02:07:26.751Z,27.90
2018-09-19T02:09:56.058Z,27.90
2018-09-19T02:12:25.511Z,27.90
2018-09-19T02:14:54.791Z,27.90
2018-09-19T02:17:24.081Z,27.90
2018-09-19T02:19:53.460Z,27.80
2018-09-19T02:22:22.679Z,27.80
2018-09-19T02:24:51.965Z,27.90
2018-09-19T02:27:21.295Z,27.90
2018-09-19T02:29:50.523Z,27.90
2018-09-19T02:32:19.776Z,27.80
2018-09-19T02:34:49.095Z,27.80
2018-09-19T02:37:18.356Z,27.80
2018-09-19T02:39:47.635Z,27.80
2018-09-19T02:42:16.907Z,27.80
2018-09-19T02:44:46.305Z,27.80
2018-09-19T02:47:15.545Z,27.80
2018-09-19T02:49:44.867Z,27.80
2018-09-19T02:52:14.142Z,27.80
2018-09-19T02:54:43.400Z,27.70
2018-09-19T02:57:12.701Z,27.70
2018-09-19T02:59:41.993Z,27.70
2018-09-19T03:02:11.259Z,27.70
2018-09-19T03:04:40.599Z,27.70
2018-09-19T03:07:09.839Z,27.70
2018-09-19T03:09:39.140Z,27.70
2018-09-19T03:12:08.436Z,27.70
2018-09-19T03:14:37.745Z,27.60
2018-09-19T03:17:07.051Z,27.70
2018-09-19T03:19:36.351Z,27.60
2018-09-19T03:22:05.628Z,27.60
2018-09-19T03:24:34.898Z,27.60
2018-09-19T03:27:04.143Z,27.60
2018-09-19T03:29:33.417Z,27.70
2018-09-19T03:32:02.812Z,27.70
2018-09-19T03:34:32.148Z,27.70
2018-09-19T03:37:01.380Z,27.70
2018-09-19T03:39:30.652Z,27.70
2018-09-19T03:41:59.959Z,27.60
2018-09-19T03:44:29.249Z,27.70
2018-09-19T03:46:59.655Z,27.60
2018-09-19T03:49:29.352Z,27.60
2018-09-19T03:51:58.635Z,27.60
2018-09-19T03:54:27.987Z,27.60
2018-09-19T03:56:57.294Z,27.60
2018-09-19T03:59:26.529Z,27.60
2018-09-19T04:01:55.819Z,27.60
2018-09-19T04:04:25.084Z,27.60
2018-09-19T04:06:54.440Z,27.60
2018-09-19T04:09:23.815Z,27.60
2018-09-19T04:11:53.122Z,27.60
2018-09-19T04:14:22.435Z,27.60
2018-09-19T04:16:51.769Z,27.60
2018-09-19T04:19:20.995Z,27.60
2018-09-19T04:21:52.106Z,27.50
2018-09-19T04:24:21.377Z,27.50
2018-09-19T04:26:50.615Z,27.50
2018-09-19T04:29:19.919Z,27.50
2018-09-19T04:31:49.156Z,27.50
2018-09-19T04:34:18.396Z,27.50
2018-09-19T04:36:47.652Z,27.50
2018-09-19T04:39:16.947Z,27.50
2018-09-19T04:41:46.218Z,27.40
2018-09-19T04:44:15.454Z,27.40
2018-09-19T04:46:44.677Z,27.40
2018-09-19T04:49:13.940Z,27.40
2018-09-19T04:51:43.322Z,27.40
2018-09-19T04:54:12.577Z,27.40
2018-09-19T04:56:41.903Z,27.40
2018-09-19T04:59:11.171Z,27.40
2018-09-19T05:01:40.503Z,27.40
2018-09-19T05:04:09.765Z,27.40
2018-09-19T05:06:39.026Z,27.40
2018-09-19T05:09:09.594Z,27.40
2018-09-19T05:11:38.891Z,27.40
2018-09-19T05:14:08.631Z,27.40
2018-09-19T05:16:38.001Z,27.40
2018-09-19T05:19:07.497Z,27.40
2018-09-19T05:21:36.861Z,27.40
2018-09-19T05:24:06.195Z,27.40
2018-09-19T05:26:35.555Z,27.40
2018-09-19T05:29:04.864Z,27.40
2018-09-19T05:31:34.152Z,27.40
2018-09-19T05:34:03.436Z,27.40
2018-09-19T05:36:32.722Z,27.40
2018-09-19T05:39:01.954Z,27.30
2018-09-19T05:41:31.278Z,27.30
2018-09-19T05:44:00.656Z,27.30
2018-09-19T05:46:30.048Z,27.30
2018-09-19T05:48:59.381Z,27.30
2018-09-19T05:51:30.287Z,27.30
2018-09-19T05:54:02.435Z,27.30
2018-09-19T05:56:31.832Z,27.30
2018-09-19T05:59:01.187Z,27.40
2018-09-19T06:01:30.487Z,27.40
2018-09-19T06:03:59.761Z,27.40
2018-09-19T06:06:29.148Z,27.40
2018-09-19T06:08:58.437Z,27.40
2018-09-19T06:11:27.769Z,27.40
2018-09-19T06:13:57.081Z,27.40
2018-09-19T06:16:26.341Z,27.40
2018-09-19T06:18:55.616Z,27.40
2018-09-19T06:21:24.946Z,27.40
2018-09-19T06:23:54.345Z,27.40
2018-09-19T06:26:23.598Z,27.40
2018-09-19T06:28:52.933Z,27.40
2018-09-19T06:31:22.648Z,27.40
2018-09-19T06:33:52.109Z,27.40
2018-09-19T06:36:23.534Z,27.40
2018-09-19T06:38:52.893Z,27.40
2018-09-19T06:41:22.204Z,27.40
2018-09-19T06:43:51.624Z,27.40
2018-09-19T06:46:20.967Z,27.40
2018-09-19T06:48:50.291Z,27.40
2018-09-19T06:51:19.569Z,27.50
2018-09-19T06:53:48.896Z,27.40
2018-09-19T06:56:18.213Z,27.40
2018-09-19T06:58:47.600Z,27.40
2018-09-19T07:01:16.893Z,27.40
2018-09-19T07:03:46.194Z,27.50
2018-09-19T07:06:15.549Z,27.50
2018-09-19T07:08:44.828Z,27.50
2018-09-19T07:11:14.060Z,27.50
2018-09-19T07:13:43.392Z,27.50
2018-09-19T07:16:12.692Z,27.50
2018-09-19T07:18:41.969Z,27.50
2018-09-19T07:21:11.232Z,27.60
2018-09-19T07:23:40.522Z,27.60
2018-09-19T07:26:09.765Z,27.60
2018-09-19T07:28:39.049Z,27.60
2018-09-19T07:31:08.364Z,27.70
2018-09-19T07:33:37.735Z,27.70
2018-09-19T07:36:07.056Z,27.70
2018-09-19T07:38:36.280Z,27.70
2018-09-19T07:41:05.661Z,27.80
2018-09-19T07:43:35.052Z,27.80
2018-09-19T07:46:04.350Z,27.90
2018-09-19T07:48:33.591Z,28.00
2018-09-19T07:51:03.056Z,28.00
2018-09-19T07:53:33.157Z,28.10
2018-09-19T07:56:02.870Z,28.10
2018-09-19T07:58:32.883Z,28.20
2018-09-19T08:01:03.528Z,28.20
2018-09-19T08:03:32.784Z,28.30
2018-09-19T08:06:02.833Z,28.30
2018-09-19T08:08:32.256Z,28.30
2018-09-19T08:11:02.203Z,28.40
2018-09-19T08:13:31.566Z,28.40
2018-09-19T08:16:00.917Z,28.50
2018-09-19T08:18:30.292Z,28.50
2018-09-19T08:21:06.368Z,28.50
2018-09-19T08:23:35.700Z,28.60
2018-09-19T08:26:05.033Z,28.70
2018-09-19T08:28:35.290Z,28.70
2018-09-19T08:31:04.963Z,28.70
2018-09-19T08:33:34.420Z,28.80
2018-09-19T08:36:03.723Z,28.80
2018-09-19T08:38:33.061Z,28.80
2018-09-19T08:41:03.390Z,28.90
2018-09-19T08:43:33.106Z,29.00
2018-09-19T08:46:02.581Z,29.00
2018-09-19T08:48:33.136Z,29.00
2018-09-19T08:51:03.513Z,29.10
2018-09-19T08:53:32.900Z,29.20
2018-09-19T08:56:03.192Z,29.20
2018-09-19T08:58:32.764Z,29.30
2018-09-19T09:01:02.006Z,29.40
2018-09-19T09:03:31.236Z,29.40
2018-09-19T09:06:00.545Z,29.40
2018-09-19T09:08:29.864Z,29.50
2018-09-19T09:10:59.225Z,29.50
2018-09-19T09:13:28.563Z,29.60
2018-09-19T09:15:57.899Z,29.70
2018-09-19T09:18:27.204Z,29.70
2018-09-19T09:20:56.508Z,29.70
2018-09-19T09:23:25.804Z,29.80
2018-09-19T09:25:55.074Z,29.80
2018-09-19T09:28:24.343Z,29.80
2018-09-19T09:30:53.643Z,29.80
2018-09-19T09:33:29.445Z,29.90
2018-09-19T09:35:58.747Z,29.90
2018-09-19T09:38:28.021Z,30.00
2018-09-19T09:40:57.267Z,30.00
2018-09-19T09:43:26.592Z,30.00
2018-09-19T09:45:55.938Z,30.00
2018-09-19T09:48:25.302Z,30.10
2018-09-19T09:50:54.548Z,30.00
2018-09-19T09:53:23.945Z,30.00
2018-09-19T09:55:53.319Z,30.00
2018-09-19T09:58:22.732Z,30.00
2018-09-19T10:00:52.056Z,30.10
2018-09-19T10:03:21.348Z,30.10
2018-09-19T10:05:50.740Z,30.20
2018-09-19T10:08:20.112Z,30.20
2018-09-19T10:10:49.655Z,30.30
2018-09-19T10:13:18.953Z,30.30
2018-09-19T10:15:48.210Z,30.30
2018-09-19T10:18:17.485Z,30.40
2018-09-19T10:20:46.718Z,30.40
2018-09-19T10:23:15.948Z,30.40
2018-09-19T10:25:45.236Z,30.40
2018-09-19T10:28:14.549Z,30.40
2018-09-19T10:30:43.776Z,30.40
2018-09-19T10:33:13.030Z,30.40
2018-09-19T10:35:42.244Z,30.40
2018-09-19T10:38:11.750Z,30.30
2018-09-19T10:40:41.257Z,30.30
2018-09-19T10:43:11.374Z,30.30
2018-09-19T10:45:41.283Z,30.20
2018-09-19T10:48:10.631Z,30.20
2018-09-19T10:50:40.854Z,30.20
2018-09-19T10:53:10.107Z,30.10
2018-09-19T10:55:40.345Z,30.10
2018-09-19T10:58:09.740Z,30.00
2018-09-19T11:00:40.331Z,30.00
2018-09-19T11:03:09.761Z,30.00
2018-09-19T11:05:40.280Z,30.00
2018-09-19T11:08:09.659Z,30.00
2018-09-19T11:10:38.902Z,29.90
2018-09-19T11:13:08.274Z,30.00
2018-09-19T11:15:37.598Z,30.00
2018-09-19T11:18:06.980Z,30.00
2018-09-19T11:20:36.248Z,30.00
2018-09-19T11:23:05.545Z,29.90
2018-09-19T11:25:34.809Z,29.90
2018-09-19T11:28:04.658Z,29.90
2018-09-19T11:30:34.015Z,29.90
2018-09-19T11:33:03.252Z,29.90
2018-09-19T11:35:32.488Z,29.90
2018-09-19T11:38:01.768Z,29.90
2018-09-19T11:40:31.043Z,29.90
2018-09-19T11:43:00.420Z,29.90
2018-09-19T11:45:29.716Z,30.00
2018-09-19T11:47:58.998Z,30.10
2018-09-19T11:50:28.261Z,30.20
2018-09-19T11:52:57.528Z,30.20
2018-09-19T11:55:26.777Z,30.20
2018-09-19T11:57:56.088Z,30.20
2018-09-19T12:00:25.369Z,30.20
2018-09-19T12:02:54.681Z,30.20
2018-09-19T12:05:23.981Z,30.20
2018-09-19T12:07:53.374Z,30.10
2018-09-19T12:10:22.657Z,30.20
2018-09-19T12:12:51.931Z,30.10
2018-09-19T12:15:21.180Z,30.20
2018-09-19T12:17:50.397Z,30.20
2018-09-19T12:20:19.683Z,30.20
2018-09-19T12:22:48.920Z,30.20
2018-09-19T12:25:18.260Z,30.30
2018-09-19T12:27:48.512Z,30.20
2018-09-19T12:30:17.851Z,30.20
2018-09-19T12:32:47.277Z,30.20
2018-09-19T12:35:17.299Z,30.30
2018-09-19T12:37:47.340Z,30.30
2018-09-19T12:40:16.871Z,30.30
2018-09-19T12:42:46.613Z,30.30
2018-09-19T12:45:16.282Z,30.30
2018-09-19T12:47:46.317Z,30.30
2018-09-19T12:50:16.020Z,30.30
2018-09-19T12:52:45.335Z,30.40
2018-09-19T12:55:14.622Z,30.30
2018-09-19T12:57:43.928Z,30.40
2018-09-19T13:00:13.247Z,30.40
2018-09-19T13:02:42.534Z,30.40
2018-09-19T13:05:11.899Z,30.40
2018-09-19T13:07:41.268Z,30.40
2018-09-19T13:10:10.641Z,30.40
2018-09-19T13:12:39.905Z,30.40
2018-09-19T13:15:09.197Z,30.40
2018-09-19T13:17:38.469Z,30.40
2018-09-19T13:20:07.701Z,30.40
2018-09-19T13:22:36.972Z,30.30
2018-09-19T13:25:06.340Z,30.30
2018-09-19T13:27:35.581Z,30.30
2018-09-19T13:30:04.929Z,30.40
2018-09-19T13:32:34.267Z,30.30
2018-09-19T13:35:03.587Z,30.20
2018-09-19T13:37:32.880Z,30.10
2018-09-19T13:40:02.277Z,30.10
2018-09-19T13:42:31.508Z,30.00
2018-09-19T13:45:00.828Z,29.90
2018-09-19T13:47:30.170Z,29.90
2018-09-19T13:50:06.649Z,29.80
2018-09-19T13:52:35.873Z,29.70
2018-09-19T13:55:05.289Z,29.60
2018-09-19T13:57:34.535Z,29.60
2018-09-19T14:00:03.899Z,29.50
2018-09-19T14:02:33.119Z,29.50
2018-09-19T14:05:02.357Z,29.50
2018-09-19T14:07:31.727Z,29.40
2018-09-19T14:10:00.950Z,29.40
2018-09-19T14:12:30.247Z,29.40
2018-09-19T14:14:59.680Z,29.40
2018-09-19T14:17:29.021Z,29.40
2018-09-19T14:19:58.280Z,29.40
2018-09-19T14:22:27.489Z,29.30
2018-09-19T14:24:57.001Z,29.30
2018-09-19T14:27:26.367Z,29.30
2018-09-19T14:29:55.740Z,29.30
2018-09-19T14:32:25.191Z,29.30
2018-09-19T14:34:54.461Z,29.30
2018-09-19T14:37:23.877Z,29.20
2018-09-19T14:39:53.201Z,29.20
2018-09-19T14:42:22.506Z,29.20
2018-09-19T14:44:51.764Z,29.20
2018-09-19T14:47:21.286Z,29.20
2018-09-19T14:49:50.555Z,29.20
2018-09-19T14:52:20.569Z,29.20
2018-09-19T14:54:49.874Z,29.20
2018-09-19T14:57:19.103Z,29.20
2018-09-19T14:59:48.969Z,29.20
2018-09-19T15:02:18.188Z,29.10
2018-09-19T15:04:47.436Z,29.10
2018-09-19T15:07:16.773Z,29.10
2018-09-19T15:09:46.007Z,29.10
2018-09-19T15:12:16.732Z,29.10
2018-09-19T15:14:45.960Z,29.10
2018-09-19T15:17:15.220Z,29.10
2018-09-19T15:19:45.078Z,29.10
2018-09-19T15:22:14.497Z,29.10
2018-09-19T15:24:44.177Z,29.10
2018-09-19T15:27:13.595Z,29.00
2018-09-19T15:29:42.877Z,29.00
2018-09-19T15:32:13.248Z,29.10
2018-09-19T15:34:42.558Z,29.10
2018-09-19T15:37:12.702Z,29.10
2018-09-19T15:39:42.088Z,29.10
2018-09-19T15:42:11.425Z,29.10
2018-09-19T15:44:41.417Z,29.10
2018-09-19T15:47:10.776Z,29.00
2018-09-19T15:49:41.202Z,29.10
2018-09-19T15:52:10.488Z,29.10
2018-09-19T15:54:39.873Z,29.10
2018-09-19T15:57:09.422Z,29.00
2018-09-19T15:59:38.829Z,29.10
2018-09-19T16:02:08.061Z,29.10
2018-09-19T16:04:37.647Z,29.10
2018-09-19T16:07:07.144Z,29.10
2018-09-19T16:09:36.864Z,29.10
2018-09-19T16:12:06.299Z,29.10
2018-09-19T16:14:36.499Z,29.10
2018-09-19T16:17:06.001Z,29.10
2018-09-19T16:19:35.339Z,29.20
2018-09-19T16:22:04.747Z,29.20
2018-09-19T16:24:34.085Z,29.20
2018-09-19T16:27:03.464Z,29.20
2018-09-19T16:29:32.946Z,29.20
2018-09-19T16:32:02.326Z,29.20
2018-09-19T16:34:31.709Z,29.20
2018-09-19T16:37:00.944Z,29.30
2018-09-19T16:39:31.704Z,29.20
2018-09-19T16:42:01.585Z,29.20
2018-09-19T16:44:31.084Z,29.20
2018-09-19T16:47:00.416Z,29.20
2018-09-19T16:49:29.769Z,29.20
2018-09-19T16:51:59.124Z,29.20
2018-09-19T16:54:28.420Z,29.20
2018-09-19T16:56:57.850Z,29.20
2018-09-19T16:59:27.129Z,29.10
2018-09-19T17:02:07.433Z,29.10
2018-09-19T17:04:36.977Z,29.10
2018-09-19T17:07:06.296Z,29.20
2018-09-19T17:09:35.821Z,29.10
2018-09-19T17:12:05.232Z,29.20
2018-09-19T17:14:34.554Z,29.10
2018-09-19T17:17:03.928Z,29.20
2018-09-19T17:19:33.261Z,29.20
2018-09-19T17:22:02.634Z,29.20
2018-09-19T17:24:31.911Z,29.10
2018-09-19T17:27:01.828Z,29.10
2018-09-19T17:29:31.659Z,29.10
2018-09-19T17:32:02.196Z,29.10
2018-09-19T17:34:32.628Z,29.00
2018-09-19T17:37:02.933Z,29.00
2018-09-19T17:39:32.297Z,29.00
2018-09-19T17:42:02.213Z,29.00
2018-09-19T17:44:32.616Z,29.00
2018-09-19T17:47:02.605Z,29.00
2018-09-19T17:49:32.278Z,29.00
2018-09-19T17:52:01.809Z,28.90
2018-09-19T17:54:31.178Z,29.00
2018-09-19T17:57:01.077Z,28.90
2018-09-19T17:59:31.406Z,28.90
2018-09-19T18:02:00.993Z,28.90
2018-09-19T18:04:30.471Z,28.80
2018-09-19T18:07:01.028Z,28.80
2018-09-19T18:09:30.916Z,28.80
2018-09-19T18:12:00.272Z,28.80
2018-09-19T18:14:30.346Z,28.80
2018-09-19T18:17:00.910Z,28.80
2018-09-19T18:19:30.413Z,28.80
2018-09-19T18:21:59.829Z,28.80
2018-09-19T18:24:29.182Z,28.80
2018-09-19T18:26:58.730Z,28.80
2018-09-19T18:29:27.968Z,28.80
2018-09-19T18:31:57.188Z,28.80
2018-09-19T18:34:26.533Z,28.70
2018-09-19T18:36:55.867Z,28.70
2018-09-19T18:39:25.175Z,28.70
2018-09-19T18:41:54.544Z,28.80
2018-09-19T18:44:23.789Z,28.70
2018-09-19T18:46:53.032Z,28.70
2018-09-19T18:49:22.419Z,28.70
2018-09-19T18:51:51.697Z,28.70
2018-09-19T18:54:23.037Z,28.80
2018-09-19T18:56:52.868Z,28.70
2018-09-19T18:59:22.212Z,28.80
2018-09-19T19:01:51.592Z,28.70
2018-09-19T19:04:20.976Z,28.70
2018-09-19T19:06:50.617Z,28.70
2018-09-19T19:09:19.964Z,28.70
2018-09-19T19:11:49.316Z,28.70
2018-09-19T19:14:18.672Z,28.70
2018-09-19T19:16:47.892Z,28.70
2018-09-19T19:19:17.239Z,28.70
2018-09-19T19:21:46.557Z,28.70
2018-09-19T19:24:15.898Z,28.70
2018-09-19T19:26:45.846Z,28.70
2018-09-19T19:29:15.093Z,28.80
2018-09-19T19:31:45.331Z,28.80
2018-09-19T19:34:14.750Z,28.70
2018-09-19T19:36:44.046Z,28.80
2018-09-19T19:39:13.366Z,28.70
2018-09-19T19:41:42.623Z,28.70
2018-09-19T19:44:11.901Z,28.70
2018-09-19T19:46:41.385Z,28.70
2018-09-19T19:49:10.724Z,28.70
2018-09-19T19:51:40.062Z,28.70
2018-09-19T19:54:09.344Z,28.70
2018-09-19T19:56:38.670Z,28.70
2018-09-19T19:59:08.010Z,28.70
2018-09-19T20:01:37.391Z,28.70
2018-09-19T20:04:06.704Z,28.70
2018-09-19T20:06:36.007Z,28.70
2018-09-19T20:09:06.935Z,28.70
2018-09-19T20:11:36.199Z,28.70
2018-09-19T20:14:05.524Z,28.70
2018-09-19T20:16:34.793Z,28.70
2018-09-19T20:19:04.144Z,28.70
2018-09-19T20:21:33.349Z,28.70
2018-09-19T20:24:02.616Z,28.70
2018-09-19T20:26:31.863Z,28.60
2018-09-19T20:29:01.213Z,28.70
2018-09-19T20:31:30.610Z,28.70
2018-09-19T20:33:59.984Z,28.70
2018-09-19T20:36:29.335Z,28.70
2018-09-19T20:38:58.609Z,28.70
2018-09-19T20:41:27.924Z,28.70
2018-09-19T20:43:57.140Z,28.70
2018-09-19T20:46:26.374Z,28.70
2018-09-19T20:48:56.112Z,28.70
2018-09-19T20:51:25.485Z,28.70
2018-09-19T20:53:54.712Z,28.60
2018-09-19T20:56:23.960Z,28.60
2018-09-19T20:58:53.233Z,28.70
2018-09-19T21:01:22.453Z,28.70
2018-09-19T21:03:51.773Z,28.70
2018-09-19T21:06:21.062Z,28.70
2018-09-19T21:08:50.353Z,28.70
2018-09-19T21:11:20.543Z,28.70
2018-09-19T21:13:49.805Z,28.60
2018-09-19T21:16:19.072Z,28.70
2018-09-19T21:18:48.467Z,28.70
2018-09-19T21:21:18.968Z,28.70
2018-09-19T21:23:48.246Z,28.60
2018-09-19T21:26:17.519Z,28.60
2018-09-19T21:28:46.757Z,28.60
2018-09-19T21:31:16.157Z,28.60
2018-09-19T21:33:45.428Z,28.60
2018-09-19T21:36:14.694Z,28.60
2018-09-19T21:38:43.968Z,28.60
2018-09-19T21:41:13.195Z,28.60
2018-09-19T21:43:42.585Z,28.60
2018-09-19T21:46:11.839Z,28.60
2018-09-19T21:48:41.255Z,28.60
2018-09-19T21:51:10.512Z,28.60
2018-09-19T21:53:39.736Z,28.60
2018-09-19T21:56:08.960Z,28.60
2018-09-19T21:58:38.268Z,28.60
2018-09-19T22:01:08.411Z,28.70
2018-09-19T22:03:38.893Z,28.70
2018-09-19T22:06:08.548Z,28.60
2018-09-19T22:08:38.667Z,28.60
2018-09-19T22:11:07.991Z,28.70
2018-09-19T22:13:37.268Z,28.60
2018-09-19T22:16:06.653Z,28.60
2018-09-19T22:18:35.988Z,28.70
2018-09-19T22:21:05.328Z,28.60
2018-09-19T22:23:34.618Z,28.60
2018-09-19T22:26:03.885Z,28.60
2018-09-19T22:28:33.148Z,28.60
2018-09-19T22:31:02.376Z,28.70
2018-09-19T22:33:31.688Z,28.60
2018-09-19T22:36:00.912Z,28.60
2018-09-19T22:38:30.205Z,28.60
2018-09-19T22:40:59.488Z,28.60
2018-09-19T22:43:28.730Z,28.60
2018-09-19T22:45:58.034Z,28.60
2018-09-19T22:48:27.315Z,28.60
2018-09-19T22:50:56.576Z,28.60
2018-09-19T22:53:25.847Z,28.60
2018-09-19T22:55:55.141Z,28.60
2018-09-19T22:58:24.365Z,28.60
2018-09-19T23:00:53.660Z,28.70
2018-09-19T23:03:23.035Z,28.60
2018-09-19T23:05:52.265Z,28.60
2018-09-19T23:08:21.596Z,28.60
2018-09-19T23:10:50.877Z,28.60
2018-09-19T23:13:20.118Z,28.60
2018-09-19T23:15:49.353Z,28.50
2018-09-19T23:18:18.710Z,28.60
2018-09-19T23:20:47.961Z,28.60
2018-09-19T23:23:17.243Z,28.60
2018-09-19T23:25:46.528Z,28.60
2018-09-19T23:28:15.777Z,28.50
2018-09-19T23:30:45.022Z,28.50
2018-09-19T23:33:14.245Z,28.50
2018-09-19T23:35:43.476Z,28.50
2018-09-19T23:38:12.736Z,28.50
2018-09-19T23:40:42.956Z,28.50
2018-09-19T23:43:12.204Z,28.50
2018-09-19T23:45:41.444Z,28.50
2018-09-19T23:48:10.693Z,28.50
2018-09-19T23:50:39.975Z,28.50
2018-09-19T23:53:09.261Z,28.50
2018-09-19T23:55:38.587Z,28.50
2018-09-19T23:58:07.948Z,28.50
